Time;durP1;ratioP1;P1;durP2;ratioP2;P2;SDS_P1;SDS_P2;PMS_P1;PMS_P2;Temp;Humidity;BMP_temperature;BMP_pressure;BME280_temperature;BME280_humidity;BME280_pressure;Samples;Min_cycle;Max_cycle;Signal;HPM_P1;HPM_P2
2021/03/07 18:22:22;;;;;;;169.75;77.47;;;;;;;;;;4796062;23;20510;-68
2021/03/07 18:24:48;;;;;;;166.65;78.13;;;;;;;;;;4956017;29;20094;-69
2021/03/07 18:27:14;;;;;;;163.60;73.32;;;;;;;;;;4956504;29;20051;-67
2021/03/07 18:29:40;;;;;;;168.98;79.70;;;;;;;;;;4955041;29;20038;-68
2021/03/07 18:32:07;;;;;;;169.13;79.13;;;;;;;;;;4935547;29;20031;-67
2021/03/07 18:34:36;;;;;;;166.20;76.93;;;;;;;;;;4952548;29;20023;-68
2021/03/07 18:37:02;;;;;;;169.93;76.43;;;;;;;;;;4953336;29;20057;-67
2021/03/07 18:39:28;;;;;;;146.38;68.28;;;;;;;;;;4936048;29;20027;-66
2021/03/07 18:41:54;;;;;;;143.77;65.78;;;;;;;;;;4932083;29;20029;-68
2021/03/07 18:44:20;;;;;;;119.95;51.60;;;;;;;;;;4937302;29;20075;-66
2021/03/07 18:46:46;;;;;;;109.05;50.47;;;;;;;;;;4949768;29;20098;-64
2021/03/07 18:49:14;;;;;;;106.57;50.70;;;;;;;;;;4949160;29;20034;-65
2021/03/07 18:51:40;;;;;;;110.35;52.15;;;;;;;;;;4956106;29;20114;-67
2021/03/07 18:54:06;;;;;;;100.50;50.20;;;;;;;;;;4938727;29;20023;-66
2021/03/07 18:56:32;;;;;;;122.47;52.00;;;;;;;;;;4955707;29;20055;-65
2021/03/07 18:58:58;;;;;;;106.32;47.53;;;;;;;;;;4955753;29;20119;-68
2021/03/07 19:01:26;;;;;;;104.45;47.63;;;;;;;;;;4938792;29;20450;-67
2021/03/07 19:03:52;;;;;;;106.40;48.45;;;;;;;;;;4938635;29;20039;-67
2021/03/07 19:06:19;;;;;;;105.07;50.97;;;;;;;;;;4955984;29;20023;-65
2021/03/07 19:08:45;;;;;;;96.00;46.83;;;;;;;;;;4952404;29;20073;-65
2021/03/07 19:11:11;;;;;;;101.75;47.10;;;;;;;;;;4953500;29;20027;-65
2021/03/07 19:13:37;;;;;;;100.28;45.25;;;;;;;;;;4937104;29;20026;-66
2021/03/07 19:16:03;;;;;;;102.00;44.55;;;;;;;;;;4955395;29;20077;-66
2021/03/07 19:18:29;;;;;;;116.65;50.58;;;;;;;;;;4953279;28;20036;-65
2021/03/07 19:20:56;;;;;;;119.13;53.88;;;;;;;;;;4954525;29;20023;-65
2021/03/07 19:23:22;;;;;;;106.15;47.63;;;;;;;;;;4937857;29;20034;-66
2021/03/07 19:25:48;;;;;;;106.55;46.50;;;;;;;;;;4950401;28;20055;-66
2021/03/07 19:28:14;;;;;;;110.60;49.78;;;;;;;;;;4936556;29;20027;-66
2021/03/07 19:30:41;;;;;;;104.15;49.03;;;;;;;;;;4954054;29;20115;-67
2021/03/07 19:33:07;;;;;;;111.78;51.25;;;;;;;;;;4954786;29;20029;-66
2021/03/07 19:35:33;;;;;;;108.50;51.78;;;;;;;;;;4955057;29;20019;-67
2021/03/07 19:37:59;;;;;;;108.32;51.63;;;;;;;;;;4954432;29;20411;-67
2021/03/07 19:40:26;;;;;;;104.80;50.08;;;;;;;;;;4936744;29;20110;-67
2021/03/07 19:42:52;;;;;;;162.25;71.72;;;;;;;;;;4948631;29;20031;-67
2021/03/07 19:45:19;;;;;;;148.35;64.88;;;;;;;;;;4953230;29;20092;-68
2021/03/07 19:47:45;;;;;;;124.38;57.60;;;;;;;;;;4936005;29;20031;-67
2021/03/07 19:50:13;;;;;;;129.00;60.00;;;;;;;;;;4936889;29;20027;-68
2021/03/07 19:52:41;;;;;;;115.07;52.10;;;;;;;;;;4935920;29;20087;-66
2021/03/07 19:55:08;;;;;;;81.05;36.70;;;;;;;;;;4952248;29;20431;-66
2021/03/07 19:57:36;;;;;;;83.88;39.53;;;;;;;;;;5058357;23;22608;-68
2021/03/07 20:00:04;;;;;;;86.93;40.20;;;;;;;;;;4988693;28;20061;-64
2021/03/07 20:02:30;;;;;;;92.28;41.40;;;;;;;;;;4982893;28;20086;-65
2021/03/07 20:04:56;;;;;;;92.78;44.65;;;;;;;;;;4982098;28;20419;-69
2021/03/07 20:07:22;;;;;;;112.28;48.60;;;;;;;;;;4976013;28;20018;-67
2021/03/07 20:09:48;;;;;;;105.30;47.53;;;;;;;;;;4976197;28;20035;-68
2021/03/07 20:12:15;;;;;;;99.32;45.97;;;;;;;;;;4993505;28;20088;-68
2021/03/07 20:14:41;;;;;;;102.78;46.53;;;;;;;;;;4975936;28;20031;-68
2021/03/07 20:17:07;;;;;;;91.97;41.75;;;;;;;;;;4993788;28;20022;-68
2021/03/07 20:19:33;;;;;;;92.68;40.60;;;;;;;;;;4993213;28;20027;-72
2021/03/07 20:21:59;;;;;;;92.13;41.78;;;;;;;;;;4988456;28;20027;-67
2021/03/07 20:24:25;;;;;;;98.05;44.70;;;;;;;;;;4974036;28;20335;-69
2021/03/07 20:26:52;;;;;;;97.80;43.90;;;;;;;;;;4975561;28;20019;-71
2021/03/07 20:29:18;;;;;;;85.70;39.65;;;;;;;;;;4976395;28;20448;-68
2021/03/07 20:31:44;;;;;;;106.28;48.28;;;;;;;;;;4979419;28;20065;-67
2021/03/07 20:34:10;;;;;;;97.60;44.13;;;;;;;;;;4996376;28;20023;-68
2021/03/07 20:36:36;;;;;;;108.95;47.92;;;;;;;;;;4997226;28;20030;-68
2021/03/07 20:39:02;;;;;;;105.70;47.58;;;;;;;;;;4979955;28;20377;-67
2021/03/07 20:41:28;;;;;;;105.90;47.13;;;;;;;;;;4994799;28;20029;-67
2021/03/07 20:43:54;;;;;;;103.63;46.30;;;;;;;;;;4979382;28;20359;-67
2021/03/07 20:46:21;;;;;;;103.03;49.13;;;;;;;;;;4996681;28;20030;-66
2021/03/07 20:48:47;;;;;;;114.25;52.17;;;;;;;;;;4996274;28;20084;-67
2021/03/07 20:51:13;;;;;;;103.18;49.83;;;;;;;;;;4996893;28;20037;-67
2021/03/07 20:53:39;;;;;;;94.15;48.63;;;;;;;;;;4996169;28;20343;-69
2021/03/07 20:56:05;;;;;;;91.82;46.08;;;;;;;;;;4996360;28;20023;-68
2021/03/07 20:58:31;;;;;;;88.13;44.75;;;;;;;;;;4996647;28;20078;-70
2021/03/07 21:00:57;;;;;;;96.20;47.58;;;;;;;;;;4995542;28;20042;-69
2021/03/07 21:03:23;;;;;;;89.78;45.15;;;;;;;;;;4967496;28;20123;-68
2021/03/07 21:05:49;;;;;;;83.40;41.78;;;;;;;;;;4968117;28;20030;-68
2021/03/07 21:08:16;;;;;;;86.57;41.28;;;;;;;;;;4982048;28;20027;-68
2021/03/07 21:10:42;;;;;;;85.18;38.28;;;;;;;;;;4976884;28;20035;-68
2021/03/07 21:13:08;;;;;;;88.15;39.65;;;;;;;;;;4976775;28;20031;-68
2021/03/07 21:15:34;;;;;;;79.55;38.03;;;;;;;;;;4964265;28;20026;-64
2021/03/07 21:18:01;;;;;;;81.05;37.03;;;;;;;;;;4991318;28;20049;-65
2021/03/07 21:20:27;;;;;;;72.72;35.63;;;;;;;;;;4990916;28;20433;-66
2021/03/07 21:22:54;;;;;;;74.97;36.03;;;;;;;;;;4984335;28;20532;-66
2021/03/07 21:25:20;;;;;;;73.28;36.17;;;;;;;;;;4992034;28;20462;-69
2021/03/07 21:27:46;;;;;;;74.68;37.50;;;;;;;;;;4995768;28;20023;-67
2021/03/07 21:30:12;;;;;;;93.30;43.88;;;;;;;;;;4992625;28;20078;-67
2021/03/07 21:32:38;;;;;;;85.88;41.53;;;;;;;;;;4980879;28;20022;-66
2021/03/07 21:35:05;;;;;;;79.53;38.13;;;;;;;;;;4989444;28;20109;-69
2021/03/07 21:37:31;;;;;;;79.82;39.35;;;;;;;;;;4995541;28;20023;-67
2021/03/07 21:39:57;;;;;;;75.43;36.08;;;;;;;;;;4991064;28;20034;-68
2021/03/07 21:42:23;;;;;;;73.93;37.88;;;;;;;;;;4975576;28;20018;-67
2021/03/07 21:44:50;;;;;;;74.80;37.00;;;;;;;;;;4974872;28;20043;-66
2021/03/07 21:47:16;;;;;;;79.63;37.58;;;;;;;;;;4976313;28;20378;-66
2021/03/07 21:49:42;;;;;;;73.13;36.45;;;;;;;;;;4976200;28;20086;-67
2021/03/07 21:52:09;;;;;;;73.22;36.38;;;;;;;;;;4985862;28;20037;-65
2021/03/07 21:54:35;;;;;;;82.72;37.78;;;;;;;;;;4995802;28;20019;-65
2021/03/07 21:57:01;;;;;;;81.40;37.80;;;;;;;;;;4995268;28;20069;-65
2021/03/07 21:59:27;;;;;;;75.32;37.20;;;;;;;;;;4994562;28;20050;-66
2021/03/07 22:01:53;;;;;;;79.50;38.95;;;;;;;;;;4994567;28;20054;-66
2021/03/07 22:04:19;;;;;;;76.80;37.75;;;;;;;;;;4993505;28;20072;-65
2021/03/07 22:06:45;;;;;;;77.78;36.22;;;;;;;;;;4995349;28;20089;-67
2021/03/07 22:09:11;;;;;;;74.85;37.35;;;;;;;;;;4995120;28;20377;-67
2021/03/07 22:11:38;;;;;;;93.40;42.97;;;;;;;;;;4995126;28;20481;-67
2021/03/07 22:14:04;;;;;;;76.72;36.10;;;;;;;;;;4994983;28;20235;-65
2021/03/07 22:16:30;;;;;;;76.80;36.80;;;;;;;;;;4993900;28;20054;-66
2021/03/07 22:18:56;;;;;;;69.90;35.47;;;;;;;;;;4975812;28;20377;-66
2021/03/07 22:21:22;;;;;;;72.40;36.47;;;;;;;;;;4993782;28;20026;-65
